Time;durP1;ratioP1;P1;durP2;ratioP2;P2;SDS_P1;SDS_P2;PMS_P1;PMS_P2;Temp;Humidity;BMP_temperature;BMP_pressure;BME280_temperature;BME280_humidity;BME280_pressure;Samples;Min_cycle;Max_cycle;Signal;HPM_P1;HPM_P2
2021/11/06 00:00:19;;;;;;;;;;;13.80;99.90;;;;;;4999114;28;910;-57
2021/11/06 00:02:45;;;;;;;;;;;13.80;99.90;;;;;;5014899;28;1171;-57
2021/11/06 00:05:12;;;;;;;;;;;13.80;99.90;;;;;;5017572;28;1246;-57
2021/11/06 00:07:38;;;;;;;;;;;13.70;99.90;;;;;;5000440;28;835;-56
2021/11/06 00:10:06;;;;;;;;;;;13.70;99.90;;;;;;5000638;28;1910;-56
2021/11/06 00:12:32;;;;;;;;;;;13.70;99.90;;;;;;5011977;28;870;-56
2021/11/06 00:14:58;;;;;;;;;;;13.70;99.90;;;;;;5016671;28;801;-57
2021/11/06 00:17:24;;;;;;;;;;;13.70;99.90;;;;;;5017371;28;882;-56
2021/11/06 00:19:49;;;;;;;;;;;13.70;99.90;;;;;;5017418;28;1001;-56
2021/11/06 00:22:16;;;;;;;;;;;13.70;99.90;;;;;;5017598;28;822;-56
2021/11/06 00:24:42;;;;;;;;;;;13.60;99.90;;;;;;5017165;28;1011;-56
2021/11/06 00:27:08;;;;;;;;;;;13.60;99.90;;;;;;5017381;28;763;-57
2021/11/06 00:29:34;;;;;;;;;;;13.60;99.90;;;;;;5014659;28;1983;-57
2021/11/06 00:32:00;;;;;;;;;;;13.60;99.90;;;;;;4999664;28;947;-57
2021/11/06 00:34:26;;;;;;;;;;;13.60;99.90;;;;;;4993893;28;944;-56
2021/11/06 00:36:52;;;;;;;;;;;13.60;99.90;;;;;;4981846;28;896;-56
2021/11/06 00:39:18;;;;;;;;;;;13.60;99.90;;;;;;4999082;28;908;-56
2021/11/06 00:41:44;;;;;;;;;;;13.60;99.90;;;;;;4998928;28;922;-57
2021/11/06 00:44:10;;;;;;;;;;;13.60;99.90;;;;;;4999253;28;830;-58
2021/11/06 00:46:36;;;;;;;;;;;13.50;99.90;;;;;;4999048;28;873;-58
2021/11/06 00:49:02;;;;;;;;;;;13.50;99.90;;;;;;4998997;28;885;-56
2021/11/06 00:51:28;;;;;;;;;;;13.50;99.90;;;;;;4998709;28;1898;-57
2021/11/06 00:53:54;;;;;;;;;;;13.50;99.90;;;;;;4998814;28;912;-57
2021/11/06 00:56:21;;;;;;;;;;;13.50;99.90;;;;;;4999088;28;883;-56
2021/11/06 00:58:47;;;;;;;;;;;13.50;99.90;;;;;;4999043;28;973;-57
2021/11/06 01:01:13;;;;;;;;;;;13.50;99.90;;;;;;5010426;28;1165;-56
2021/11/06 01:03:38;;;;;;;;;;;13.50;99.90;;;;;;5017293;28;1064;-56
2021/11/06 01:06:04;;;;;;;;;;;13.50;99.90;;;;;;5015573;28;882;-56
2021/11/06 01:08:30;;;;;;;;;;;13.50;99.90;;;;;;5017068;28;973;-56
2021/11/06 01:10:56;;;;;;;;;;;13.40;99.90;;;;;;5015947;28;1960;-56
2021/11/06 01:13:22;;;;;;;;;;;13.50;99.90;;;;;;5009369;28;1172;-57
2021/11/06 01:15:48;;;;;;;;;;;13.40;99.90;;;;;;5016236;28;842;-56
2021/11/06 01:18:14;;;;;;;;;;;13.40;99.90;;;;;;5016328;28;896;-56
2021/11/06 01:20:40;;;;;;;;;;;13.40;99.90;;;;;;5012807;28;779;-56
2021/11/06 01:23:06;;;;;;;;;;;13.40;99.90;;;;;;5016282;28;884;-56
2021/11/06 01:25:32;;;;;;;;;;;13.40;99.90;;;;;;5016099;28;856;-56
2021/11/06 01:27:58;;;;;;;;;;;13.40;99.90;;;;;;5016280;28;858;-56
2021/11/06 01:30:24;;;;;;;;;;;13.40;99.90;;;;;;5006695;28;1981;-56
2021/11/06 01:32:50;;;;;;;;;;;13.40;99.90;;;;;;4998218;28;1000;-57
2021/11/06 01:35:18;;;;;;;;;;;13.30;99.90;;;;;;4998211;28;838;-57
2021/11/06 01:37:44;;;;;;;;;;;13.30;99.90;;;;;;4995707;28;883;-57
2021/11/06 01:40:11;;;;;;;;;;;13.30;99.90;;;;;;5016510;28;931;-57
2021/11/06 01:42:38;;;;;;;;;;;13.30;99.90;;;;;;5016167;28;814;-56
2021/11/06 01:45:05;;;;;;;;;;;13.30;99.90;;;;;;5016056;28;912;-56
2021/11/06 01:47:31;;;;;;;;;;;13.30;99.90;;;;;;5015746;28;901;-56
2021/11/06 01:49:57;;;;;;;;;;;13.30;99.90;;;;;;5015749;28;1907;-58
2021/11/06 01:52:23;;;;;;;;;;;13.30;99.90;;;;;;5015608;28;774;-56
2021/11/06 01:54:49;;;;;;;;;;;13.30;99.90;;;;;;5015885;28;922;-57
2021/11/06 01:57:15;;;;;;;;;;;13.30;99.90;;;;;;5016026;28;1042;-57
2021/11/06 01:59:42;;;;;;;;;;;13.30;99.90;;;;;;5011403;28;944;-57
2021/11/06 02:02:08;;;;;;;;;;;13.30;99.90;;;;;;4997017;28;1890;-57
2021/11/06 02:04:34;;;;;;;;;;;13.30;99.90;;;;;;4996861;28;924;-57
2021/11/06 02:07:00;;;;;;;;;;;13.30;99.90;;;;;;4996570;28;838;-56
2021/11/06 02:09:26;;;;;;;;;;;13.30;99.90;;;;;;4997186;28;822;-57
2021/11/06 02:11:52;;;;;;;;;;;13.20;99.90;;;;;;4996762;28;1973;-56
2021/11/06 02:14:18;;;;;;;;;;;13.20;99.90;;;;;;4996555;28;818;-56
2021/11/06 02:16:44;;;;;;;;;;;13.20;99.90;;;;;;4996510;28;920;-57
2021/11/06 02:19:10;;;;;;;;;;;13.20;99.90;;;;;;4996541;28;858;-57
2021/11/06 02:21:37;;;;;;;;;;;13.20;99.90;;;;;;4996727;28;871;-57
2021/11/06 02:24:03;;;;;;;;;;;13.20;99.90;;;;;;4996705;28;1058;-56
2021/11/06 02:26:30;;;;;;;;;;;13.20;99.90;;;;;;4996534;28;842;-56
2021/11/06 02:28:58;;;;;;;;;;;13.20;99.90;;;;;;4980037;28;905;-57
2021/11/06 02:31:24;;;;;;;;;;;13.20;99.90;;;;;;4996054;28;1938;-56
2021/11/06 02:33:50;;;;;;;;;;;13.20;99.90;;;;;;4996640;28;893;-56
2021/11/06 02:36:17;;;;;;;;;;;13.20;99.90;;;;;;4996360;28;847;-57
2021/11/06 02:38:43;;;;;;;;;;;13.20;99.90;;;;;;4998886;28;959;-57
2021/11/06 02:41:09;;;;;;;;;;;13.20;99.90;;;;;;5000349;28;1067;-57
2021/11/06 02:43:35;;;;;;;;;;;13.10;99.90;;;;;;5000373;28;787;-57
2021/11/06 02:46:01;;;;;;;;;;;13.10;99.90;;;;;;5000187;28;888;-57
2021/11/06 02:48:28;;;;;;;;;;;13.10;99.90;;;;;;5000568;28;949;-57
2021/11/06 02:50:54;;;;;;;;;;;13.10;99.90;;;;;;5000274;28;1910;-57
2021/11/06 02:53:20;;;;;;;;;;;13.10;99.90;;;;;;5000314;28;1017;-56
2021/11/06 02:55:47;;;;;;;;;;;13.10;99.90;;;;;;5000172;28;780;-56
2021/11/06 02:58:13;;;;;;;;;;;13.10;99.90;;;;;;5000214;28;897;-57
2021/11/06 03:00:40;;;;;;;;;;;13.10;99.90;;;;;;4999986;28;1134;-57
2021/11/06 03:03:06;;;;;;;;;;;13.10;99.90;;;;;;5000171;28;807;-56
2021/11/06 03:05:32;;;;;;;;;;;13.10;99.90;;;;;;5018787;28;913;-57
2021/11/06 03:07:59;;;;;;;;;;;13.10;99.90;;;;;;5001476;28;898;-56
2021/11/06 03:10:25;;;;;;;;;;;13.10;99.90;;;;;;5018498;28;1890;-56
2021/11/06 03:12:52;;;;;;;;;;;13.10;99.90;;;;;;5018281;28;1032;-56
2021/11/06 03:15:18;;;;;;;;;;;13.10;99.90;;;;;;5018337;28;815;-56
2021/11/06 03:17:44;;;;;;;;;;;13.10;99.90;;;;;;5018661;28;1129;-56
2021/11/06 03:20:11;;;;;;;;;;;13.00;99.90;;;;;;5001657;28;897;-56
2021/11/06 03:22:37;;;;;;;;;;;13.00;99.90;;;;;;4989265;28;1901;-57
2021/11/06 03:25:04;;;;;;;;;;;13.00;99.90;;;;;;5000486;28;1082;-57
2021/11/06 03:27:30;;;;;;;;;;;13.00;99.90;;;;;;4994481;28;921;-57
2021/11/06 03:29:56;;;;;;;;;;;13.00;99.90;;;;;;5002727;28;1903;-56
2021/11/06 03:32:22;;;;;;;;;;;13.00;99.90;;;;;;5000393;28;813;-56
2021/11/06 03:34:48;;;;;;;;;;;13.00;99.90;;;;;;5000662;28;1124;-57
2021/11/06 03:37:14;;;;;;;;;;;13.00;99.90;;;;;;4999984;28;866;-56
2021/11/06 03:39:40;;;;;;;;;;;13.00;99.90;;;;;;5000449;28;846;-56
2021/11/06 03:42:06;;;;;;;;;;;13.00;99.90;;;;;;5000159;28;808;-56
2021/11/06 03:44:33;;;;;;;;;;;13.00;99.90;;;;;;5000025;28;844;-57
2021/11/06 03:46:59;;;;;;;;;;;12.90;99.90;;;;;;4999956;28;847;-57
2021/11/06 03:49:25;;;;;;;;;;;12.90;99.90;;;;;;4998903;28;810;-57
2021/11/06 03:51:51;;;;;;;;;;;12.90;99.90;;;;;;4999591;28;1898;-57
2021/11/06 03:54:17;;;;;;;;;;;12.90;99.90;;;;;;5002471;28;952;-57
2021/11/06 03:56:43;;;;;;;;;;;12.90;99.90;;;;;;4999966;28;998;-56
2021/11/06 03:59:10;;;;;;;;;;;12.90;99.90;;;;;;4999984;28;771;-57
2021/11/06 04:01:37;;;;;;;;;;;12.90;99.90;;;;;;4998991;28;1207;-56
2021/11/06 04:04:03;;;;;;;;;;;12.90;99.90;;;;;;4998998;28;844;-56
2021/11/06 04:06:29;;;;;;;;;;;12.90;99.90;;;;;;4998989;28;857;-56
2021/11/06 04:08:55;;;;;;;;;;;12.90;99.90;;;;;;4999440;28;767;-57
2021/11/06 04:11:22;;;;;;;;;;;12.90;99.90;;;;;;4998707;28;1910;-57
2021/11/06 04:13:48;;;;;;;;;;;12.90;99.90;;;;;;4998689;28;907;-57
2021/11/06 04:16:15;;;;;;;;;;;12.90;99.90;;;;;;4998822;28;746;-57
2021/11/06 04:18:42;;;;;;;;;;;12.90;99.90;;;;;;4998737;28;829;-57
2021/11/06 04:21:08;;;;;;;;;;;12.90;99.90;;;;;;4998400;28;893;-57
2021/11/06 04:23:34;;;;;;;;;;;12.90;99.90;;;;;;4998877;28;831;-57
2021/11/06 04:26:00;;;;;;;;;;;12.80;99.90;;;;;;4998468;28;846;-57
2021/11/06 04:28:26;;;;;;;;;;;12.90;99.90;;;;;;4998741;28;1084;-57
2021/11/06 04:30:52;;;;;;;;;;;12.80;99.90;;;;;;4998548;28;1973;-56
2021/11/06 04:33:18;;;;;;;;;;;12.80;99.90;;;;;;4998698;28;861;-57
2021/11/06 04:35:44;;;;;;;;;;;12.80;99.90;;;;;;4998324;28;901;-56
2021/11/06 04:38:11;;;;;;;;;;;12.80;99.90;;;;;;4998410;28;912;-56
2021/11/06 04:40:37;;;;;;;;;;;12.80;99.90;;;;;;4998465;28;850;-57
2021/11/06 04:43:03;;;;;;;;;;;12.80;99.90;;;;;;4998302;28;786;-57
2021/11/06 04:45:30;;;;;;;;;;;12.80;99.90;;;;;;4981707;28;893;-58
2021/11/06 04:47:56;;;;;;;;;;;12.80;99.90;;;;;;4998273;28;880;-56
2021/11/06 04:50:21;;;;;;;;;;;12.80;99.90;;;;;;4998289;28;1952;-56
2021/11/06 04:52:47;;;;;;;;;;;12.80;99.90;;;;;;4998005;28;1467;-56
2021/11/06 04:55:14;;;;;;;;;;;12.80;99.90;;;;;;4998085;28;893;-56
2021/11/06 04:57:41;;;;;;;;;;;12.80;99.90;;;;;;4998239;28;974;-56
2021/11/06 05:00:08;;;;;;;;;;;12.80;99.90;;;;;;4998133;28;1409;-56
2021/11/06 05:02:34;;;;;;;;;;;12.80;99.90;;;;;;4993074;28;1063;-57
2021/11/06 05:05:00;;;;;;;;;;;12.80;99.90;;;;;;4976615;28;776;-57
2021/11/06 05:07:26;;;;;;;;;;;12.80;99.90;;;;;;4997631;28;807;-58
2021/11/06 05:09:53;;;;;;;;;;;12.80;99.90;;;;;;4997590;28;879;-58
2021/11/06 05:12:19;;;;;;;;;;;12.70;99.90;;;;;;4983651;28;1973;-57
2021/11/06 05:14:46;;;;;;;;;;;12.70;99.90;;;;;;4997259;28;1108;-56
2021/11/06 05:17:12;;;;;;;;;;;12.70;99.90;;;;;;4997695;28;780;-57
2021/11/06 05:19:38;;;;;;;;;;;12.70;99.90;;;;;;4997548;28;859;-57
2021/11/06 05:22:05;;;;;;;;;;;12.70;99.90;;;;;;4997359;28;916;-57
2021/11/06 05:24:32;;;;;;;;;;;12.80;99.90;;;;;;4997522;28;873;-57
2021/11/06 05:26:58;;;;;;;;;;;12.80;99.90;;;;;;4997207;28;886;-56
2021/11/06 05:29:25;;;;;;;;;;;12.80;99.90;;;;;;4994148;28;1255;-56
2021/11/06 05:31:50;;;;;;;;;;;12.80;99.90;;;;;;4997174;28;1968;-57
2021/11/06 05:34:16;;;;;;;;;;;12.80;99.90;;;;;;4997295;28;852;-57
2021/11/06 05:36:42;;;;;;;;;;;12.80;99.90;;;;;;4994221;28;1412;-56
2021/11/06 05:39:08;;;;;;;;;;;12.80;99.90;;;;;;4997128;28;920;-56
2021/11/06 05:41:34;;;;;;;;;;;12.80;99.90;;;;;;4997201;28;918;-57
2021/11/06 05:44:01;;;;;;;;;;;12.80;99.90;;;;;;4997001;28;897;-57
2021/11/06 05:46:27;;;;;;;;;;;12.80;99.90;;;;;;4997212;28;986;-57
2021/11/06 05:48:53;;;;;;;;;;;12.80;99.90;;;;;;4995379;28;1171;-56
2021/11/06 05:51:19;;;;;;;;;;;12.80;99.90;;;;;;4997065;28;1914;-56
2021/11/06 05:53:45;;;;;;;;;;;12.80;99.90;;;;;;4996915;28;786;-56
2021/11/06 05:56:14;;;;;;;;;;;12.80;99.90;;;;;;4996914;28;935;-56
2021/11/06 05:58:40;;;;;;;;;;;12.70;99.90;;;;;;4996922;28;830;-57
2021/11/06 06:01:06;;;;;;;;;;;12.70;99.90;;;;;;4996700;28;1342;-57
2021/11/06 06:03:33;;;;;;;;;;;12.80;99.90;;;;;;4996832;28;803;-57
2021/11/06 06:05:59;;;;;;;;;;;12.70;99.90;;;;;;4980508;28;914;-57
2021/11/06 06:08:26;;;;;;;;;;;12.70;99.90;;;;;;4979792;28;1078;-56
2021/11/06 06:10:52;;;;;;;;;;;12.70;99.90;;;;;;4996812;28;1914;-56
2021/11/06 06:13:18;;;;;;;;;;;12.70;99.90;;;;;;4996023;28;897;-56
2021/11/06 06:15:44;;;;;;;;;;;12.70;99.90;;;;;;4996473;28;915;-56
2021/11/06 06:18:10;;;;;;;;;;;12.70;99.90;;;;;;4996598;28;893;-57
2021/11/06 06:20:36;;;;;;;;;;;12.70;99.90;;;;;;4996845;28;948;-57
2021/11/06 06:23:04;;;;;;;;;;;12.70;99.90;;;;;;4996186;28;987;-57
2021/11/06 06:25:30;;;;;;;;;;;12.70;99.90;;;;;;4996521;28;855;-57
2021/11/06 06:27:56;;;;;;;;;;;12.70;99.90;;;;;;4996487;28;746;-56
2021/11/06 06:30:22;;;;;;;;;;;12.70;99.90;;;;;;4996472;28;1914;-56
2021/11/06 06:32:48;;;;;;;;;;;12.70;99.90;;;;;;4996663;28;840;-57
2021/11/06 06:35:15;;;;;;;;;;;12.70;99.90;;;;;;4991777;28;887;-56
2021/11/06 06:37:41;;;;;;;;;;;12.70;99.90;;;;;;4996220;28;913;-56
2021/11/06 06:40:09;;;;;;;;;;;12.70;99.90;;;;;;5002469;28;791;-57
2021/11/06 06:42:35;;;;;;;;;;;12.70;99.90;;;;;;4995901;28;1128;-57
2021/11/06 06:45:03;;;;;;;;;;;12.70;99.90;;;;;;4996286;28;937;-56
2021/11/06 06:47:29;;;;;;;;;;;12.70;99.90;;;;;;4994397;28;1479;-56
2021/11/06 06:49:55;;;;;;;;;;;12.70;99.90;;;;;;4996272;28;823;-56
2021/11/06 06:52:22;;;;;;;;;;;12.70;99.90;;;;;;4996118;28;1957;-57
2021/11/06 06:54:48;;;;;;;;;;;12.70;99.90;;;;;;4996157;28;850;-56
2021/11/06 06:57:14;;;;;;;;;;;12.70;99.90;;;;;;4996234;28;770;-56
2021/11/06 06:59:40;;;;;;;;;;;12.60;99.90;;;;;;4996501;28;789;-58
2021/11/06 07:02:06;;;;;;;;;;;12.60;99.90;;;;;;5006804;28;1217;-57
2021/11/06 07:04:34;;;;;;;;;;;12.60;99.90;;;;;;5013061;28;826;-56
2021/11/06 07:07:00;;;;;;;;;;;12.70;99.90;;;;;;5014884;28;920;-56
2021/11/06 07:09:27;;;;;;;;;;;12.60;99.90;;;;;;5014926;28;863;-56
2021/11/06 07:11:53;;;;;;;;;;;12.60;99.90;;;;;;5014970;28;1910;-56
2021/11/06 07:14:20;;;;;;;;;;;12.60;99.90;;;;;;5015014;28;856;-56
2021/11/06 07:16:47;;;;;;;;;;;12.60;99.90;;;;;;4994261;28;908;-56
2021/11/06 07:19:14;;;;;;;;;;;12.60;99.90;;;;;;4992817;28;866;-57
2021/11/06 07:21:40;;;;;;;;;;;12.70;99.90;;;;;;4993483;28;913;-58
2021/11/06 07:24:06;;;;;;;;;;;12.70;99.90;;;;;;5016113;28;820;-57
2021/11/06 07:26:33;;;;;;;;;;;12.70;99.90;;;;;;5018542;28;833;-56
2021/11/06 07:28:59;;;;;;;;;;;12.80;99.90;;;;;;5018359;28;857;-56
2021/11/06 07:31:25;;;;;;;;;;;12.80;99.90;;;;;;5015962;28;1906;-57
2021/11/06 07:33:54;;;;;;;;;;;12.80;99.90;;;;;;5010499;28;1287;-57
2021/11/06 07:36:23;;;;;;;;;;;12.90;99.90;;;;;;5018314;28;841;-58
2021/11/06 07:38:50;;;;;;;;;;;12.90;99.90;;;;;;4998797;28;2041;-57
2021/11/06 07:41:16;;;;;;;;;;;13.00;99.90;;;;;;5018342;28;874;-57
2021/11/06 07:43:43;;;;;;;;;;;13.10;99.90;;;;;;5018097;28;860;-57
2021/11/06 07:46:09;;;;;;;;;;;13.20;99.90;;;;;;5017920;28;1059;-57
2021/11/06 07:48:35;;;;;;;;;;;13.40;99.90;;;;;;5000914;28;1156;-58
2021/11/06 07:51:02;;;;;;;;;;;13.60;99.90;;;;;;5018147;28;1982;-56
2021/11/06 07:53:28;;;;;;;;;;;13.90;99.90;;;;;;5000606;28;826;-56
2021/11/06 07:55:55;;;;;;;;;;;14.00;99.90;;;;;;5018118;28;1220;-57
2021/11/06 07:58:23;;;;;;;;;;;14.30;99.90;;;;;;5017471;28;819;-57
2021/11/06 08:00:49;;;;;;;;;;;14.50;99.90;;;;;;5004836;28;1144;-57
2021/11/06 08:03:15;;;;;;;;;;;14.60;99.90;;;;;;4999020;28;800;-57
2021/11/06 08:05:42;;;;;;;;;;;14.70;99.90;;;;;;4998729;28;902;-57
2021/11/06 08:08:08;;;;;;;;;;;14.90;99.90;;;;;;4999039;28;993;-57
2021/11/06 08:10:34;;;;;;;;;;;15.00;99.90;;;;;;4998709;28;1961;-57
2021/11/06 08:13:02;;;;;;;;;;;15.20;99.90;;;;;;4999063;28;768;-57
2021/11/06 08:15:28;;;;;;;;;;;15.20;99.90;;;;;;4999051;28;812;-57
2021/11/06 08:17:55;;;;;;;;;;;15.30;99.90;;;;;;4998500;28;907;-57
2021/11/06 08:20:22;;;;;;;;;;;15.30;99.90;;;;;;4998877;28;1005;-57
2021/11/06 08:22:49;;;;;;;;;;;15.30;99.90;;;;;;4998773;28;834;-58
2021/11/06 08:25:16;;;;;;;;;;;15.40;99.90;;;;;;4998493;28;910;-58
2021/11/06 08:27:49;;;;;;;;;;;15.30;99.90;;;;;;4998194;28;1045;-56
2021/11/06 08:30:16;;;;;;;;;;;15.30;99.90;;;;;;4993942;28;974;-57
2021/11/06 08:32:42;;;;;;;;;;;15.30;99.90;;;;;;4998356;28;1973;-56
2021/11/06 08:35:10;;;;;;;;;;;15.20;99.90;;;;;;4997955;28;765;-57
2021/11/06 08:37:36;;;;;;;;;;;15.20;99.90;;;;;;4997657;28;906;-57
2021/11/06 08:40:03;;;;;;;;;;;15.10;99.90;;;;;;4998367;28;783;-57
2021/11/06 08:42:29;;;;;;;;;;;15.10;99.90;;;;;;4998460;28;781;-57
2021/11/06 08:44:56;;;;;;;;;;;15.10;99.90;;;;;;4996680;28;862;-56
2021/11/06 08:47:22;;;;;;;;;;;15.00;99.90;;;;;;4998014;28;885;-57
2021/11/06 08:49:48;;;;;;;;;;;15.00;99.90;;;;;;4998419;28;827;-58
2021/11/06 08:52:18;;;;;;;;;;;14.90;99.90;;;;;;4997908;28;1907;-57
2021/11/06 08:54:48;;;;;;;;;;;14.90;99.90;;;;;;4998131;28;920;-58
2021/11/06 08:57:14;;;;;;;;;;;14.80;99.90;;;;;;4998217;28;853;-57
2021/11/06 08:59:40;;;;;;;;;;;14.80;99.90;;;;;;4997589;28;999;-57
2021/11/06 09:02:06;;;;;;;;;;;14.80;99.90;;;;;;4997576;28;1069;-57
2021/11/06 09:04:32;;;;;;;;;;;14.70;99.90;;;;;;4997836;28;905;-57
2021/11/06 09:06:58;;;;;;;;;;;14.70;99.90;;;;;;4997872;28;846;-58
2021/11/06 09:09:24;;;;;;;;;;;14.60;99.90;;;;;;4997809;28;838;-57
2021/11/06 09:11:54;;;;;;;;;;;14.60;99.90;;;;;;4997521;28;1978;-57
2021/11/06 09:14:20;;;;;;;;;;;14.50;99.90;;;;;;4997933;28;928;-57
2021/11/06 09:16:46;;;;;;;;;;;14.50;99.90;;;;;;4997545;28;904;-56
2021/11/06 09:19:13;;;;;;;;;;;14.50;99.90;;;;;;4997574;28;861;-56
2021/11/06 09:21:39;;;;;;;;;;;14.40;99.90;;;;;;4997930;28;1169;-57
2021/11/06 09:24:05;;;;;;;;;;;14.40;99.90;;;;;;4997345;28;779;-57
2021/11/06 09:26:35;;;;;;;;;;;14.40;99.90;;;;;;4997468;28;998;-57
2021/11/06 09:29:02;;;;;;;;;;;14.40;99.90;;;;;;4996386;28;1437;-57
2021/11/06 09:31:29;;;;;;;;;;;14.30;99.90;;;;;;4997356;28;1902;-57
2021/11/06 09:33:55;;;;;;;;;;;14.30;99.90;;;;;;4997347;28;862;-57
2021/11/06 09:36:21;;;;;;;;;;;14.20;99.90;;;;;;4996890;28;878;-57
2021/11/06 09:38:47;;;;;;;;;;;14.20;99.90;;;;;;4997316;28;942;-56
2021/11/06 09:41:14;;;;;;;;;;;14.20;99.90;;;;;;4997055;28;1058;-57
2021/11/06 09:43:40;;;;;;;;;;;14.20;99.90;;;;;;4997061;28;914;-57
2021/11/06 09:46:09;;;;;;;;;;;14.20;99.90;;;;;;4997036;28;1144;-57
2021/11/06 09:48:36;;;;;;;;;;;14.20;99.90;;;;;;4997552;28;1040;-57
2021/11/06 09:51:02;;;;;;;;;;;14.20;99.90;;;;;;4996657;28;1973;-58
2021/11/06 09:53:29;;;;;;;;;;;14.20;99.90;;;;;;4996808;28;783;-57
2021/11/06 09:55:55;;;;;;;;;;;14.10;99.90;;;;;;4997138;28;865;-57
2021/11/06 09:58:21;;;;;;;;;;;14.20;99.90;;;;;;4996908;28;894;-57
2021/11/06 10:00:47;;;;;;;;;;;14.20;99.90;;;;;;4996656;28;1305;-57
2021/11/06 10:03:16;;;;;;;;;;;14.20;99.90;;;;;;4996798;28;758;-57
2021/11/06 10:05:51;;;;;;;;;;;14.20;99.90;;;;;;4996421;28;1041;-57
2021/11/06 10:08:38;;;;;;;;;;;14.20;99.90;;;;;;4996873;28;795;-57
2021/11/06 10:11:05;;;;;;;;;;;14.20;99.90;;;;;;4996662;28;1910;-57
2021/11/06 10:13:32;;;;;;;;;;;14.20;99.90;;;;;;4997015;28;806;-57
2021/11/06 10:15:59;;;;;;;;;;;14.20;99.90;;;;;;4996823;28;775;-57
2021/11/06 10:18:26;;;;;;;;;;;14.20;99.90;;;;;;4996563;28;822;-57
2021/11/06 10:21:00;;;;;;;;;;;14.20;99.90;;;;;;4996668;28;837;-56
2021/11/06 10:23:27;;;;;;;;;;;14.20;99.90;;;;;;4996453;28;846;-56
2021/11/06 10:26:12;;;;;;;;;;;14.20;99.90;;;;;;4996819;28;838;-56
2021/11/06 10:28:38;;;;;;;;;;;14.20;99.90;;;;;;4993786;28;903;-56
2021/11/06 10:31:05;;;;;;;;;;;14.20;99.90;;;;;;4996253;28;1923;-56
2021/11/06 10:33:40;;;;;;;;;;;14.20;99.90;;;;;;4996350;28;1071;-57
2021/11/06 10:36:14;;;;;;;;;;;14.30;99.90;;;;;;4996595;28;793;-56
2021/11/06 10:38:40;;;;;;;;;;;14.20;99.90;;;;;;4979981;28;824;-57
2021/11/06 10:41:08;;;;;;;;;;;14.20;99.90;;;;;;4996371;28;834;-56
2021/11/06 10:43:37;;;;;;;;;;;14.20;99.90;;;;;;4996264;28;938;-57
2021/11/06 10:46:04;;;;;;;;;;;14.20;99.90;;;;;;4996376;28;813;-57
2021/11/06 10:48:33;;;;;;;;;;;14.20;99.90;;;;;;4995798;28;1097;-57
2021/11/06 10:51:03;;;;;;;;;;;14.20;99.90;;;;;;4996114;28;1971;-57
2021/11/06 10:53:41;;;;;;;;;;;14.20;99.90;;;;;;4996185;28;863;-57
2021/11/06 10:56:13;;;;;;;;;;;14.20;99.90;;;;;;4996514;28;859;-57
2021/11/06 10:58:43;;;;;;;;;;;14.20;99.90;;;;;;4996818;28;789;-57
2021/11/06 11:01:10;;;;;;;;;;;14.20;99.90;;;;;;4999860;28;997;-57
2021/11/06 11:03:38;;;;;;;;;;;14.20;99.90;;;;;;4998980;28;1367;-57
2021/11/06 11:06:11;;;;;;;;;;;14.20;99.90;;;;;;5000259;28;791;-57
2021/11/06 11:08:41;;;;;;;;;;;14.20;99.90;;;;;;5000146;28;816;-57
2021/11/06 11:11:08;;;;;;;;;;;14.20;99.90;;;;;;4999832;28;1972;-57
2021/11/06 11:13:45;;;;;;;;;;;14.20;99.90;;;;;;5000085;28;855;-58
2021/11/06 11:16:13;;;;;;;;;;;14.10;99.90;;;;;;5000246;28;764;-57
2021/11/06 11:18:39;;;;;;;;;;;14.20;99.90;;;;;;5000128;28;861;-57
2021/11/06 11:21:26;;;;;;;;;;;14.20;99.90;;;;;;4999726;28;880;-57
2021/11/06 11:23:53;;;;;;;;;;;14.10;99.90;;;;;;4999270;28;1742;-57
2021/11/06 11:26:22;;;;;;;;;;;14.20;99.90;;;;;;4999571;28;961;-57
2021/11/06 11:28:49;;;;;;;;;;;14.20;99.90;;;;;;4978175;28;937;-57
2021/11/06 11:31:16;;;;;;;;;;;14.20;99.90;;;;;;4999348;28;1965;-57
2021/11/06 11:33:43;;;;;;;;;;;14.20;99.90;;;;;;4998609;28;1469;-57
2021/11/06 11:36:09;;;;;;;;;;;14.20;99.90;;;;;;4999783;28;798;-56
2021/11/06 11:38:36;;;;;;;;;;;14.20;99.90;;;;;;4993629;28;963;-56
2021/11/06 11:41:21;;;;;;;;;;;14.20;99.90;;;;;;4993762;28;1073;-56
2021/11/06 11:43:53;;;;;;;;;;;14.20;99.90;;;;;;4996419;28;863;-56
2021/11/06 11:46:36;;;;;;;;;;;14.20;99.90;;;;;;4999315;28;887;-56
2021/11/06 11:49:02;;;;;;;;;;;14.20;99.90;;;;;;4999563;28;838;-57
2021/11/06 11:51:30;;;;;;;;;;;14.20;99.90;;;;;;4999191;28;1895;-57
2021/11/06 11:54:00;;;;;;;;;;;14.20;99.90;;;;;;4999278;28;850;-57
2021/11/06 11:56:28;;;;;;;;;;;14.20;99.90;;;;;;4999403;28;1017;-57
2021/11/06 11:58:55;;;;;;;;;;;14.20;99.90;;;;;;4999288;28;1045;-56
2021/11/06 12:01:22;;;;;;;;;;;14.20;99.90;;;;;;4998907;28;1084;-57
2021/11/06 12:03:53;;;;;;;;;;;14.20;99.90;;;;;;4965608;28;979;-57
2021/11/06 12:06:36;;;;;;;;;;;14.30;99.90;;;;;;4999044;28;849;-57
2021/11/06 12:09:11;;;;;;;;;;;14.30;99.90;;;;;;4998933;28;893;-57
2021/11/06 12:11:43;;;;;;;;;;;14.30;99.90;;;;;;4997637;28;1910;-57
2021/11/06 12:14:44;;;;;;;;;;;14.30;99.90;;;;;;4998953;28;838;-57
2021/11/06 12:17:11;;;;;;;;;;;14.30;99.90;;;;;;4988149;28;1154;-57
2021/11/06 12:19:45;;;;;;;;;;;14.40;99.90;;;;;;4998746;28;877;-57
2021/11/06 12:22:13;;;;;;;;;;;14.40;99.90;;;;;;4994230;28;789;-57
2021/11/06 12:24:40;;;;;;;;;;;14.40;99.90;;;;;;4998736;28;1124;-57
2021/11/06 12:27:08;;;;;;;;;;;14.40;99.90;;;;;;4998839;28;897;-57
2021/11/06 12:29:36;;;;;;;;;;;14.40;99.90;;;;;;4998637;28;915;-57
2021/11/06 12:32:09;;;;;;;;;;;14.40;99.90;;;;;;4998436;28;1910;-57
2021/11/06 12:34:46;;;;;;;;;;;14.40;99.90;;;;;;4998406;28;829;-58
2021/11/06 12:37:30;;;;;;;;;;;14.40;99.90;;;;;;4998290;28;1002;-57
2021/11/06 12:39:56;;;;;;;;;;;14.40;99.90;;;;;;4998820;28;874;-57
2021/11/06 12:42:25;;;;;;;;;;;14.40;99.90;;;;;;4996919;28;835;-57
2021/11/06 12:44:59;;;;;;;;;;;14.40;99.90;;;;;;4980065;28;1487;-56
2021/11/06 12:47:27;;;;;;;;;;;14.30;99.90;;;;;;4997901;28;857;-57
2021/11/06 12:49:53;;;;;;;;;;;14.40;99.90;;;;;;4998190;28;805;-56
2021/11/06 12:52:21;;;;;;;;;;;14.40;99.90;;;;;;4997884;28;1969;-56
2021/11/06 12:54:49;;;;;;;;;;;14.30;99.90;;;;;;4997831;28;962;-56
2021/11/06 12:57:34;;;;;;;;;;;14.40;99.90;;;;;;4998112;28;1094;-56
2021/11/06 13:00:01;;;;;;;;;;;14.40;99.90;;;;;;4997534;28;1034;-56
2021/11/06 13:02:46;;;;;;;;;;;14.40;99.90;;;;;;4997612;28;1180;-56
2021/11/06 13:05:12;;;;;;;;;;;14.40;99.90;;;;;;4997870;28;859;-56
2021/11/06 13:07:38;;;;;;;;;;;14.40;99.90;;;;;;4997829;28;821;-57
2021/11/06 13:10:24;;;;;;;;;;;14.40;99.90;;;;;;4998041;28;863;-56
2021/11/06 13:13:06;;;;;;;;;;;14.40;99.90;;;;;;4997600;28;1907;-56
2021/11/06 13:15:36;;;;;;;;;;;14.40;99.90;;;;;;4998083;28;870;-57
2021/11/06 13:18:06;;;;;;;;;;;14.40;99.90;;;;;;4997392;28;936;-57
2021/11/06 13:20:33;;;;;;;;;;;14.40;99.90;;;;;;4997357;28;870;-57
2021/11/06 13:22:59;;;;;;;;;;;14.40;99.90;;;;;;4997579;28;908;-57
2021/11/06 13:25:37;;;;;;;;;;;14.40;99.90;;;;;;4997703;28;865;-57
2021/11/06 13:28:03;;;;;;;;;;;14.30;99.90;;;;;;4996362;28;1311;-57
2021/11/06 13:30:30;;;;;;;;;;;14.30;99.90;;;;;;4997701;28;848;-57
2021/11/06 13:33:08;;;;;;;;;;;14.30;99.90;;;;;;4997179;28;1965;-57
2021/11/06 13:35:42;;;;;;;;;;;14.30;99.90;;;;;;4997299;28;997;-57
2021/11/06 13:38:08;;;;;;;;;;;14.30;99.90;;;;;;4996689;28;862;-57
2021/11/06 13:40:45;;;;;;;;;;;14.30;99.90;;;;;;4997154;28;844;-57
2021/11/06 13:43:16;;;;;;;;;;;14.30;99.90;;;;;;4997449;28;806;-57
2021/11/06 13:46:01;;;;;;;;;;;14.30;99.90;;;;;;4997296;28;874;-57
2021/11/06 13:48:28;;;;;;;;;;;14.30;99.90;;;;;;4996980;28;809;-57
2021/11/06 13:51:08;;;;;;;;;;;14.30;99.90;;;;;;4997233;28;810;-57
2021/11/06 13:53:34;;;;;;;;;;;14.30;99.90;;;;;;4997089;28;1977;-57
2021/11/06 13:56:00;;;;;;;;;;;14.30;99.90;;;;;;4996934;28;827;-57
2021/11/06 13:58:26;;;;;;;;;;;14.30;99.90;;;;;;4996424;28;1055;-57
2021/11/06 14:00:53;;;;;;;;;;;14.30;99.90;;;;;;4996851;28;1243;-57
2021/11/06 14:03:20;;;;;;;;;;;14.30;99.90;;;;;;4980634;28;905;-57
2021/11/06 14:05:46;;;;;;;;;;;14.30;99.90;;;;;;4996390;28;972;-58
2021/11/06 14:08:16;;;;;;;;;;;14.30;99.90;;;;;;4996675;28;852;-58
2021/11/06 14:10:42;;;;;;;;;;;14.30;99.90;;;;;;4980560;28;867;-57
2021/11/06 14:13:10;;;;;;;;;;;14.30;99.90;;;;;;4996652;28;1970;-57
2021/11/06 14:15:44;;;;;;;;;;;14.30;99.90;;;;;;4996615;28;931;-58
2021/11/06 14:18:14;;;;;;;;;;;14.30;99.90;;;;;;4996435;28;1100;-58
2021/11/06 14:20:44;;;;;;;;;;;14.30;99.90;;;;;;4996445;28;1028;-57
2021/11/06 14:23:11;;;;;;;;;;;14.30;99.90;;;;;;4996430;28;766;-59
2021/11/06 14:25:40;;;;;;;;;;;14.30;99.90;;;;;;4996527;28;1012;-57
2021/11/06 14:28:14;;;;;;;;;;;14.30;99.90;;;;;;4996462;28;890;-57
2021/11/06 14:31:10;;;;;;;;;;;14.30;99.90;;;;;;4996539;28;881;-58
2021/11/06 14:33:38;;;;;;;;;;;14.30;99.90;;;;;;4982942;28;1915;-57
2021/11/06 14:36:10;;;;;;;;;;;14.20;99.90;;;;;;4996187;28;839;-58
2021/11/06 14:38:45;;;;;;;;;;;14.30;99.90;;;;;;4990627;28;858;-57
2021/11/06 14:41:11;;;;;;;;;;;14.20;99.90;;;;;;4991946;28;878;-61